Sioux Lookout Airport
CYXL : now visible

Airfield :











YOU CAN JOIN US ON...

 
LOGIN :

Register | Disclaimer

   EN    FR    IT 

 









Legend :    VFR   Marginal VFR   IFR   Intensive IFR   Very Intensive IFR
Visi :
Ceiling :
>= 8 km
>= 3000ft
5 to 8 km
1000 to 3000 ft
1500m to 5 km
500 to 1000 ft
800 to 1500m
200 to 500 ft
< 800m
< 200 ft
Symbols :   Thunderstorms  Fog  Heavy snow  Heavy precipitations  Wind > 20 kt






- Airport Elevation : 1258 ft
- IATA code : YXL


CYXL - Sioux Lookout

CURRENT METAR :
  • 091400Z 18004KT 160V220 15SM SCT040 BKN120 OVC170 19/18 A2970 RMK CU3AC3AS2 SLP058 DENSITY ALT 2400FT

EXPIRED METARs :
  • 091342Z 17007G15KT 15SM FEW015 FEW040 SCT120 OVC180 19/18 A2971 RMK CF1CU2AC2AS4 CF TR CB DST NE PRESFR SLP061 DENSITY ALT 2300FT
  • 091300Z 14007KT 15SM -SHRA FEW024 BKN040 OVC100 18/18 A2973 RMK SC2SC4AC2 CVCTV CLD EMBD SLP070 DENSITY ALT 2200FT
  • 091238Z 15010KT 130V230 10SM -TSRA FEW024 BKN037CB OVC090 18/17 A2974 RMK CU2CB4AC2 OCNL LTGICCCCG N-SE PRESFR SLP073 DENSITY ALT 2200FT
  • 091200Z 20018G27KT 3SM TSRA FEW015 BKN026CB OVC090 19/18 A2975 RMK CU1CB6AC1 OCNL LTGICCCCG ALL QUADS SLP076 DENSITY ALT 2200FT

TAF TAF CYXL
Valid from the 09 at 14:00 until the 10 at 02:00 UTC


091338Z 0914/1002 15010KT P6SM BKN050
TEMPO 0914/0916 5SM -SHRA BR BKN020
FM091700 24015G25KT P6SM SCT030
BECMG 1000/1002 26007KT RMK NXT FCST BY 092000Z
CZWG FIR / North America



MET'MAP, your aeronautical weather chart ! - Copyright ORBIFLY December 2007 - Disclaimer

ORBIFLY MET'MAP TEAM :

Programming & Development : Alexandra Zaïnal
Concept & original design : Baudouin d'Aumeries
Assistance for programming : Marc-Olivier Méhu
Technical & hardware support : Manuel Goepfert

Contact : metmap@orbifly.com




SOURCES & CREDITS :

   NOAA       Earth
Advisory